sensor_id;sensor_type;location;lat;lon;timestamp;P1;durP1;ratioP1;P2;durP2;ratioP2
9214;SDS011;4642;51.364;6.788;2023-05-07T00:02:06;4.30;;;2.90;;
9214;SDS011;4642;51.364;6.788;2023-05-07T00:04:32;3.57;;;2.90;;
9214;SDS011;4642;51.364;6.788;2023-05-07T00:07:02;4.87;;;3.30;;
9214;SDS011;4642;51.364;6.788;2023-05-07T00:09:27;3.73;;;3.03;;
9214;SDS011;4642;51.364;6.788;2023-05-07T00:11:53;4.60;;;2.73;;
9214;SDS011;4642;51.364;6.788;2023-05-07T00:14:19;3.30;;;2.37;;
9214;SDS011;4642;51.364;6.788;2023-05-07T00:16:44;5.87;;;2.60;;
9214;SDS011;4642;51.364;6.788;2023-05-07T00:19:10;4.53;;;3.20;;
9214;SDS011;4642;51.364;6.788;2023-05-07T00:21:35;2.97;;;2.73;;
9214;SDS011;4642;51.364;6.788;2023-05-07T00:24:01;4.87;;;2.67;;
9214;SDS011;4642;51.364;6.788;2023-05-07T00:26:26;3.43;;;2.90;;
9214;SDS011;4642;51.364;6.788;2023-05-07T00:28:52;4.30;;;3.03;;
9214;SDS011;4642;51.364;6.788;2023-05-07T00:31:18;3.10;;;2.80;;
9214;SDS011;4642;51.364;6.788;2023-05-07T00:33:43;6.63;;;3.33;;
9214;SDS011;4642;51.364;6.788;2023-05-07T00:36:09;4.47;;;3.60;;
9214;SDS011;4642;51.364;6.788;2023-05-07T00:38:34;6.30;;;3.43;;
9214;SDS011;4642;51.364;6.788;2023-05-07T00:41:00;4.87;;;3.30;;
9214;SDS011;4642;51.364;6.788;2023-05-07T00:43:27;8.27;;;3.10;;
9214;SDS011;4642;51.364;6.788;2023-05-07T00:45:52;5.53;;;3.20;;
9214;SDS011;4642;51.364;6.788;2023-05-07T00:48:18;3.40;;;3.10;;
9214;SDS011;4642;51.364;6.788;2023-05-07T00:50:44;4.63;;;3.07;;
9214;SDS011;4642;51.364;6.788;2023-05-07T00:53:10;4.20;;;3.40;;
9214;SDS011;4642;51.364;6.788;2023-05-07T00:55:36;5.50;;;2.97;;
9214;SDS011;4642;51.364;6.788;2023-05-07T00:58:02;7.30;;;2.90;;
9214;SDS011;4642;51.364;6.788;2023-05-07T01:00:28;3.30;;;3.00;;
9214;SDS011;4642;51.364;6.788;2023-05-07T01:02:53;3.67;;;2.80;;
9214;SDS011;4642;51.364;6.788;2023-05-07T01:05:19;3.47;;;3.17;;
9214;SDS011;4642;51.364;6.788;2023-05-07T01:07:46;4.13;;;2.70;;
9214;SDS011;4642;51.364;6.788;2023-05-07T01:10:12;6.97;;;3.00;;
9214;SDS011;4642;51.364;6.788;2023-05-07T01:12:38;3.57;;;3.27;;
9214;SDS011;4642;51.364;6.788;2023-05-07T01:15:05;4.53;;;3.03;;
9214;SDS011;4642;51.364;6.788;2023-05-07T01:17:33;5.47;;;3.23;;
9214;SDS011;4642;51.364;6.788;2023-05-07T01:20:04;4.93;;;2.67;;
9214;SDS011;4642;51.364;6.788;2023-05-07T01:22:33;6.33;;;3.20;;
9214;SDS011;4642;51.364;6.788;2023-05-07T01:25:03;4.43;;;2.83;;
9214;SDS011;4642;51.364;6.788;2023-05-07T01:27:30;6.43;;;2.80;;
9214;SDS011;4642;51.364;6.788;2023-05-07T01:29:55;3.50;;;3.20;;
9214;SDS011;4642;51.364;6.788;2023-05-07T01:32:23;4.23;;;3.10;;
9214;SDS011;4642;51.364;6.788;2023-05-07T01:35:00;5.43;;;3.73;;
9214;SDS011;4642;51.364;6.788;2023-05-07T01:37:30;4.37;;;3.93;;
9214;SDS011;4642;51.364;6.788;2023-05-07T01:39:55;6.07;;;4.00;;
9214;SDS011;4642;51.364;6.788;2023-05-07T01:42:22;3.93;;;3.53;;
9214;SDS011;4642;51.364;6.788;2023-05-07T01:44:48;6.10;;;3.60;;
9214;SDS011;4642;51.364;6.788;2023-05-07T01:47:13;3.93;;;3.30;;
9214;SDS011;4642;51.364;6.788;2023-05-07T01:49:39;4.30;;;3.63;;
9214;SDS011;4642;51.364;6.788;2023-05-07T01:52:06;6.33;;;3.50;;
9214;SDS011;4642;51.364;6.788;2023-05-07T01:54:32;4.33;;;3.70;;
9214;SDS011;4642;51.364;6.788;2023-05-07T01:56:58;4.13;;;3.73;;
9214;SDS011;4642;51.364;6.788;2023-05-07T01:59:25;3.80;;;3.43;;
9214;SDS011;4642;51.364;6.788;2023-05-07T02:01:50;4.17;;;3.77;;
9214;SDS011;4642;51.364;6.788;2023-05-07T02:04:16;4.93;;;3.40;;
9214;SDS011;4642;51.364;6.788;2023-05-07T02:06:42;6.43;;;3.83;;
9214;SDS011;4642;51.364;6.788;2023-05-07T02:09:07;5.77;;;4.07;;
9214;SDS011;4642;51.364;6.788;2023-05-07T02:11:33;6.50;;;3.80;;
9214;SDS011;4642;51.364;6.788;2023-05-07T02:13:59;6.63;;;4.33;;
9214;SDS011;4642;51.364;6.788;2023-05-07T02:16:25;8.60;;;3.87;;
9214;SDS011;4642;51.364;6.788;2023-05-07T02:18:50;4.70;;;4.20;;
9214;SDS011;4642;51.364;6.788;2023-05-07T02:21:16;6.97;;;3.87;;
9214;SDS011;4642;51.364;6.788;2023-05-07T02:23:41;5.47;;;3.93;;
9214;SDS011;4642;51.364;6.788;2023-05-07T02:26:07;7.67;;;4.13;;
9214;SDS011;4642;51.364;6.788;2023-05-07T02:28:33;6.70;;;4.17;;
9214;SDS011;4642;51.364;6.788;2023-05-07T02:31:01;4.60;;;3.97;;
9214;SDS011;4642;51.364;6.788;2023-05-07T02:33:27;5.13;;;4.30;;
9214;SDS011;4642;51.364;6.788;2023-05-07T02:35:53;5.63;;;3.73;;
9214;SDS011;4642;51.364;6.788;2023-05-07T02:38:19;5.53;;;3.73;;
9214;SDS011;4642;51.364;6.788;2023-05-07T02:40:44;4.80;;;3.30;;
9214;SDS011;4642;51.364;6.788;2023-05-07T02:43:10;4.90;;;3.70;;
9214;SDS011;4642;51.364;6.788;2023-05-07T02:45:35;5.20;;;4.00;;
9214;SDS011;4642;51.364;6.788;2023-05-07T02:48:04;4.73;;;3.37;;
9214;SDS011;4642;51.364;6.788;2023-05-07T02:50:30;4.83;;;3.80;;
9214;SDS011;4642;51.364;6.788;2023-05-07T02:52:57;10.17;;;4.07;;
9214;SDS011;4642;51.364;6.788;2023-05-07T02:55:23;6.43;;;3.67;;
9214;SDS011;4642;51.364;6.788;2023-05-07T02:57:48;3.73;;;3.43;;
9214;SDS011;4642;51.364;6.788;2023-05-07T03:00:15;4.50;;;4.10;;
9214;SDS011;4642;51.364;6.788;2023-05-07T03:02:42;4.30;;;3.90;;
9214;SDS011;4642;51.364;6.788;2023-05-07T03:05:08;4.10;;;3.60;;
9214;SDS011;4642;51.364;6.788;2023-05-07T03:07:34;4.27;;;3.87;;
9214;SDS011;4642;51.364;6.788;2023-05-07T03:10:01;4.47;;;4.07;;
9214;SDS011;4642;51.364;6.788;2023-05-07T03:12:26;4.63;;;4.20;;
9214;SDS011;4642;51.364;6.788;2023-05-07T03:14:52;6.67;;;3.93;;
9214;SDS011;4642;51.364;6.788;2023-05-07T03:17:17;4.80;;;3.60;;
9214;SDS011;4642;51.364;6.788;2023-05-07T03:19:43;4.67;;;3.80;;
9214;SDS011;4642;51.364;6.788;2023-05-07T03:22:08;4.40;;;3.50;;
9214;SDS011;4642;51.364;6.788;2023-05-07T03:24:34;8.30;;;3.93;;
9214;SDS011;4642;51.364;6.788;2023-05-07T03:26:59;8.77;;;3.93;;
9214;SDS011;4642;51.364;6.788;2023-05-07T03:29:26;6.97;;;3.97;;
9214;SDS011;4642;51.364;6.788;2023-05-07T03:31:51;5.80;;;3.53;;
9214;SDS011;4642;51.364;6.788;2023-05-07T03:34:17;5.50;;;4.10;;
9214;SDS011;4642;51.364;6.788;2023-05-07T03:36:46;4.10;;;3.33;;
9214;SDS011;4642;51.364;6.788;2023-05-07T03:39:15;6.67;;;3.80;;
9214;SDS011;4642;51.364;6.788;2023-05-07T03:41:41;7.00;;;4.20;;
9214;SDS011;4642;51.364;6.788;2023-05-07T03:44:07;4.03;;;3.30;;
9214;SDS011;4642;51.364;6.788;2023-05-07T03:46:32;4.80;;;3.97;;
9214;SDS011;4642;51.364;6.788;2023-05-07T03:48:58;4.73;;;4.20;;
9214;SDS011;4642;51.364;6.788;2023-05-07T03:51:24;6.30;;;3.90;;
9214;SDS011;4642;51.364;6.788;2023-05-07T03:53:50;5.83;;;3.87;;
9214;SDS011;4642;51.364;6.788;2023-05-07T03:56:17;4.33;;;3.93;;
9214;SDS011;4642;51.364;6.788;2023-05-07T03:58:43;5.27;;;3.73;;
9214;SDS011;4642;51.364;6.788;2023-05-07T04:01:09;8.03;;;3.83;;
9214;SDS011;4642;51.364;6.788;2023-05-07T04:03:35;4.53;;;4.00;;
9214;SDS011;4642;51.364;6.788;2023-05-07T04:06:00;6.27;;;3.80;;
9214;SDS011;4642;51.364;6.788;2023-05-07T04:08:26;9.73;;;3.70;;
9214;SDS011;4642;51.364;6.788;2023-05-07T04:10:55;4.83;;;3.60;;
9214;SDS011;4642;51.364;6.788;2023-05-07T04:13:21;4.17;;;3.77;;
9214;SDS011;4642;51.364;6.788;2023-05-07T04:15:46;5.93;;;4.10;;
9214;SDS011;4642;51.364;6.788;2023-05-07T04:18:14;4.17;;;3.57;;
9214;SDS011;4642;51.364;6.788;2023-05-07T04:20:39;5.03;;;3.50;;
9214;SDS011;4642;51.364;6.788;2023-05-07T04:23:05;4.47;;;4.07;;
9214;SDS011;4642;51.364;6.788;2023-05-07T04:25:30;5.47;;;3.70;;
9214;SDS011;4642;51.364;6.788;2023-05-07T04:27:56;12.83;;;4.37;;
9214;SDS011;4642;51.364;6.788;2023-05-07T04:30:22;4.37;;;3.60;;
9214;SDS011;4642;51.364;6.788;2023-05-07T04:32:47;6.17;;;4.03;;
9214;SDS011;4642;51.364;6.788;2023-05-07T04:35:13;4.47;;;4.03;;
9214;SDS011;4642;51.364;6.788;2023-05-07T04:37:39;8.50;;;4.00;;
9214;SDS011;4642;51.364;6.788;2023-05-07T04:40:05;4.60;;;3.97;;
9214;SDS011;4642;51.364;6.788;2023-05-07T04:42:31;4.93;;;4.00;;
9214;SDS011;4642;51.364;6.788;2023-05-07T04:44:57;6.60;;;3.90;;
9214;SDS011;4642;51.364;6.788;2023-05-07T04:47:22;4.50;;;3.83;;
9214;SDS011;4642;51.364;6.788;2023-05-07T04:49:48;5.70;;;4.30;;
9214;SDS011;4642;51.364;6.788;2023-05-07T04:52:13;4.17;;;3.77;;
9214;SDS011;4642;51.364;6.788;2023-05-07T04:54:40;4.00;;;3.60;;
9214;SDS011;4642;51.364;6.788;2023-05-07T04:57:05;4.70;;;3.60;;
9214;SDS011;4642;51.364;6.788;2023-05-07T04:59:31;6.03;;;4.27;;
9214;SDS011;4642;51.364;6.788;2023-05-07T05:01:57;5.13;;;3.97;;
9214;SDS011;4642;51.364;6.788;2023-05-07T05:04:23;8.00;;;4.20;;
9214;SDS011;4642;51.364;6.788;2023-05-07T05:06:49;4.57;;;4.13;;
9214;SDS011;4642;51.364;6.788;2023-05-07T05:09:14;4.57;;;3.87;;
9214;SDS011;4642;51.364;6.788;2023-05-07T05:11:41;4.83;;;4.13;;
9214;SDS011;4642;51.364;6.788;2023-05-07T05:14:06;4.63;;;4.20;;
9214;SDS011;4642;51.364;6.788;2023-05-07T05:16:32;6.37;;;4.27;;
9214;SDS011;4642;51.364;6.788;2023-05-07T05:18:58;4.23;;;3.80;;
9214;SDS011;4642;51.364;6.788;2023-05-07T05:21:24;6.20;;;4.43;;
9214;SDS011;4642;51.364;6.788;2023-05-07T05:23:49;8.93;;;4.03;;
9214;SDS011;4642;51.364;6.788;2023-05-07T05:26:15;7.43;;;3.90;;
9214;SDS011;4642;51.364;6.788;2023-05-07T05:28:41;4.30;;;3.90;;
9214;SDS011;4642;51.364;6.788;2023-05-07T05:31:06;4.27;;;3.87;;
9214;SDS011;4642;51.364;6.788;2023-05-07T05:33:32;4.37;;;3.87;;
9214;SDS011;4642;51.364;6.788;2023-05-07T05:35:57;4.77;;;3.80;;
9214;SDS011;4642;51.364;6.788;2023-05-07T05:38:23;8.33;;;4.20;;
9214;SDS011;4642;51.364;6.788;2023-05-07T05:40:48;5.63;;;4.27;;
9214;SDS011;4642;51.364;6.788;2023-05-07T05:43:14;4.27;;;3.87;;
9214;SDS011;4642;51.364;6.788;2023-05-07T05:45:39;6.13;;;3.97;;
9214;SDS011;4642;51.364;6.788;2023-05-07T05:48:05;4.43;;;3.77;;
9214;SDS011;4642;51.364;6.788;2023-05-07T05:50:31;7.13;;;4.30;;
9214;SDS011;4642;51.364;6.788;2023-05-07T05:52:56;6.97;;;4.37;;
9214;SDS011;4642;51.364;6.788;2023-05-07T05:55:22;8.63;;;5.10;;
9214;SDS011;4642;51.364;6.788;2023-05-07T05:57:48;4.87;;;4.23;;
9214;SDS011;4642;51.364;6.788;2023-05-07T06:00:15;7.77;;;4.13;;
9214;SDS011;4642;51.364;6.788;2023-05-07T06:02:41;5.67;;;5.10;;
9214;SDS011;4642;51.364;6.788;2023-05-07T06:05:07;5.27;;;4.60;;
9214;SDS011;4642;51.364;6.788;2023-05-07T06:07:33;8.13;;;4.63;;
9214;SDS011;4642;51.364;6.788;2023-05-07T06:09:59;6.87;;;5.20;;
9214;SDS011;4642;51.364;6.788;2023-05-07T06:12:25;6.93;;;4.83;;
9214;SDS011;4642;51.364;6.788;2023-05-07T06:14:51;14.20;;;5.27;;
9214;SDS011;4642;51.364;6.788;2023-05-07T06:17:17;11.30;;;5.60;;
9214;SDS011;4642;51.364;6.788;2023-05-07T06:19:43;10.60;;;5.53;;
9214;SDS011;4642;51.364;6.788;2023-05-07T06:22:08;6.57;;;4.60;;
9214;SDS011;4642;51.364;6.788;2023-05-07T06:24:34;6.43;;;4.90;;
9214;SDS011;4642;51.364;6.788;2023-05-07T06:27:00;7.73;;;4.60;;
9214;SDS011;4642;51.364;6.788;2023-05-07T06:29:25;5.77;;;4.40;;
9214;SDS011;4642;51.364;6.788;2023-05-07T06:31:54;4.50;;;3.87;;
9214;SDS011;4642;51.364;6.788;2023-05-07T06:34:19;5.67;;;4.00;;
9214;SDS011;4642;51.364;6.788;2023-05-07T06:36:45;7.63;;;4.10;;
9214;SDS011;4642;51.364;6.788;2023-05-07T06:39:10;4.20;;;3.80;;
9214;SDS011;4642;51.364;6.788;2023-05-07T06:41:36;4.30;;;3.70;;
9214;SDS011;4642;51.364;6.788;2023-05-07T06:44:02;7.37;;;4.57;;
9214;SDS011;4642;51.364;6.788;2023-05-07T06:46:28;6.27;;;3.87;;
9214;SDS011;4642;51.364;6.788;2023-05-07T06:48:53;7.83;;;3.93;;
9214;SDS011;4642;51.364;6.788;2023-05-07T06:51:19;6.57;;;3.90;;
9214;SDS011;4642;51.364;6.788;2023-05-07T06:53:44;5.40;;;4.07;;
9214;SDS011;4642;51.364;6.788;2023-05-07T06:56:10;3.47;;;3.10;;
9214;SDS011;4642;51.364;6.788;2023-05-07T06:58:36;7.37;;;3.40;;
9214;SDS011;4642;51.364;6.788;2023-05-07T07:01:02;6.17;;;3.17;;
9214;SDS011;4642;51.364;6.788;2023-05-07T07:03:28;3.90;;;3.47;;
9214;SDS011;4642;51.364;6.788;2023-05-07T07:05:54;10.60;;;3.17;;
9214;SDS011;4642;51.364;6.788;2023-05-07T07:08:20;3.70;;;2.90;;
9214;SDS011;4642;51.364;6.788;2023-05-07T07:10:46;5.30;;;3.03;;
9214;SDS011;4642;51.364;6.788;2023-05-07T07:13:12;5.90;;;2.90;;
9214;SDS011;4642;51.364;6.788;2023-05-07T07:15:39;7.30;;;2.67;;
9214;SDS011;4642;51.364;6.788;2023-05-07T07:18:05;5.47;;;2.37;;
9214;SDS011;4642;51.364;6.788;2023-05-07T07:20:31;3.70;;;2.60;;
9214;SDS011;4642;51.364;6.788;2023-05-07T07:22:56;2.63;;;2.43;;
9214;SDS011;4642;51.364;6.788;2023-05-07T07:25:22;5.43;;;2.73;;
9214;SDS011;4642;51.364;6.788;2023-05-07T07:27:48;7.27;;;2.80;;
9214;SDS011;4642;51.364;6.788;2023-05-07T07:30:14;2.40;;;1.80;;
9214;SDS011;4642;51.364;6.788;2023-05-07T07:32:40;3.87;;;2.43;;
9214;SDS011;4642;51.364;6.788;2023-05-07T07:35:05;3.80;;;2.53;;
9214;SDS011;4642;51.364;6.788;2023-05-07T07:37:31;6.07;;;2.87;;
9214;SDS011;4642;51.364;6.788;2023-05-07T07:39:57;2.50;;;2.30;;
9214;SDS011;4642;51.364;6.788;2023-05-07T07:42:22;3.20;;;2.00;;
9214;SDS011;4642;51.364;6.788;2023-05-07T07:44:48;3.67;;;2.20;;
9214;SDS011;4642;51.364;6.788;2023-05-07T07:47:13;5.17;;;2.20;;
9214;SDS011;4642;51.364;6.788;2023-05-07T07:49:39;4.83;;;2.23;;
9214;SDS011;4642;51.364;6.788;2023-05-07T07:52:05;2.93;;;1.90;;
9214;SDS011;4642;51.364;6.788;2023-05-07T07:54:30;3.70;;;2.27;;
9214;SDS011;4642;51.364;6.788;2023-05-07T07:56:56;4.33;;;2.00;;
9214;SDS011;4642;51.364;6.788;2023-05-07T07:59:22;4.40;;;1.80;;
9214;SDS011;4642;51.364;6.788;2023-05-07T08:01:48;8.17;;;2.37;;
9214;SDS011;4642;51.364;6.788;2023-05-07T08:04:15;3.47;;;1.80;;
9214;SDS011;4642;51.364;6.788;2023-05-07T08:06:41;2.73;;;1.60;;
9214;SDS011;4642;51.364;6.788;2023-05-07T08:09:07;4.10;;;1.90;;
9214;SDS011;4642;51.364;6.788;2023-05-07T08:11:33;3.40;;;2.90;;
9214;SDS011;4642;51.364;6.788;2023-05-07T08:13:59;5.40;;;2.03;;
9214;SDS011;4642;51.364;6.788;2023-05-07T08:16:25;4.10;;;1.73;;
9214;SDS011;4642;51.364;6.788;2023-05-07T08:18:50;5.40;;;2.00;;
9214;SDS011;4642;51.364;6.788;2023-05-07T08:21:16;3.43;;;1.93;;
9214;SDS011;4642;51.364;6.788;2023-05-07T08:23:42;5.00;;;1.80;;
9214;SDS011;4642;51.364;6.788;2023-05-07T08:26:07;3.73;;;1.87;;
9214;SDS011;4642;51.364;6.788;2023-05-07T08:28:33;2.30;;;1.63;;
9214;SDS011;4642;51.364;6.788;2023-05-07T08:30:59;1.90;;;1.67;;
9214;SDS011;4642;51.364;6.788;2023-05-07T08:33:25;5.10;;;1.87;;
9214;SDS011;4642;51.364;6.788;2023-05-07T08:35:51;6.90;;;2.10;;
9214;SDS011;4642;51.364;6.788;2023-05-07T08:38:17;2.70;;;1.70;;
9214;SDS011;4642;51.364;6.788;2023-05-07T08:40:42;2.13;;;1.70;;
9214;SDS011;4642;51.364;6.788;2023-05-07T08:43:08;2.67;;;1.70;;
9214;SDS011;4642;51.364;6.788;2023-05-07T08:45:37;8.20;;;1.80;;
9214;SDS011;4642;51.364;6.788;2023-05-07T08:48:05;3.10;;;1.70;;
9214;SDS011;4642;51.364;6.788;2023-05-07T08:50:35;2.37;;;1.80;;
9214;SDS011;4642;51.364;6.788;2023-05-07T08:53:04;4.13;;;1.57;;
9214;SDS011;4642;51.364;6.788;2023-05-07T08:55:30;3.63;;;1.57;;
9214;SDS011;4642;51.364;6.788;2023-05-07T08:57:56;4.23;;;1.47;;
9214;SDS011;4642;51.364;6.788;2023-05-07T09:00:22;3.87;;;1.43;;
9214;SDS011;4642;51.364;6.788;2023-05-07T09:02:47;2.37;;;1.70;;
9214;SDS011;4642;51.364;6.788;2023-05-07T09:05:13;4.93;;;2.07;;
9214;SDS011;4642;51.364;6.788;2023-05-07T09:07:39;4.07;;;1.67;;
9214;SDS011;4642;51.364;6.788;2023-05-07T09:10:05;3.63;;;1.47;;
9214;SDS011;4642;51.364;6.788;2023-05-07T09:12:31;2.87;;;1.60;;
9214;SDS011;4642;51.364;6.788;2023-05-07T09:14:58;5.83;;;1.80;;
9214;SDS011;4642;51.364;6.788;2023-05-07T09:17:24;2.53;;;1.60;;
9214;SDS011;4642;51.364;6.788;2023-05-07T09:19:50;4.80;;;1.50;;
9214;SDS011;4642;51.364;6.788;2023-05-07T09:22:15;5.63;;;1.60;;
9214;SDS011;4642;51.364;6.788;2023-05-07T09:24:45;7.73;;;1.43;;
9214;SDS011;4642;51.364;6.788;2023-05-07T09:27:16;6.17;;;1.70;;
9214;SDS011;4642;51.364;6.788;2023-05-07T09:29:43;3.80;;;1.70;;
9214;SDS011;4642;51.364;6.788;2023-05-07T09:32:08;2.23;;;1.60;;
9214;SDS011;4642;51.364;6.788;2023-05-07T09:34:35;1.50;;;1.17;;
9214;SDS011;4642;51.364;6.788;2023-05-07T09:37:01;5.73;;;1.33;;
9214;SDS011;4642;51.364;6.788;2023-05-07T09:39:40;3.53;;;1.80;;
9214;SDS011;4642;51.364;6.788;2023-05-07T09:42:07;2.30;;;1.30;;
9214;SDS011;4642;51.364;6.788;2023-05-07T09:44:33;1.90;;;1.40;;
9214;SDS011;4642;51.364;6.788;2023-05-07T09:47:00;1.93;;;1.30;;
9214;SDS011;4642;51.364;6.788;2023-05-07T09:49:29;3.33;;;1.30;;
9214;SDS011;4642;51.364;6.788;2023-05-07T09:51:57;2.50;;;1.10;;
9214;SDS011;4642;51.364;6.788;2023-05-07T09:54:25;5.80;;;1.20;;
9214;SDS011;4642;51.364;6.788;2023-05-07T09:56:52;1.30;;;1.20;;
9214;SDS011;4642;51.364;6.788;2023-05-07T09:59:18;4.63;;;1.47;;
9214;SDS011;4642;51.364;6.788;2023-05-07T10:01:46;3.03;;;1.33;;
9214;SDS011;4642;51.364;6.788;2023-05-07T10:04:11;2.07;;;1.20;;
9214;SDS011;4642;51.364;6.788;2023-05-07T10:06:38;2.33;;;1.30;;
9214;SDS011;4642;51.364;6.788;2023-05-07T10:09:04;2.73;;;1.30;;
9214;SDS011;4642;51.364;6.788;2023-05-07T10:11:31;1.53;;;1.10;;
9214;SDS011;4642;51.364;6.788;2023-05-07T10:13:59;2.83;;;1.30;;
9214;SDS011;4642;51.364;6.788;2023-05-07T10:16:26;1.67;;;1.20;;
9214;SDS011;4642;51.364;6.788;2023-05-07T10:18:55;7.50;;;1.43;;
9214;SDS011;4642;51.364;6.788;2023-05-07T10:21:22;3.93;;;1.20;;
9214;SDS011;4642;51.364;6.788;2023-05-07T10:26:47;2.23;;;1.43;;
9214;SDS011;4642;51.364;6.788;2023-05-07T10:29:29;2.07;;;0.90;;
9214;SDS011;4642;51.364;6.788;2023-05-07T10:35:18;1.40;;;0.83;;
9214;SDS011;4642;51.364;6.788;2023-05-07T10:37:48;2.87;;;1.20;;
9214;SDS011;4642;51.364;6.788;2023-05-07T10:40:14;3.30;;;1.10;;
9214;SDS011;4642;51.364;6.788;2023-05-07T10:42:52;1.37;;;1.10;;
9214;SDS011;4642;51.364;6.788;2023-05-07T10:45:23;4.87;;;1.30;;
9214;SDS011;4642;51.364;6.788;2023-05-07T10:48:05;0.97;;;0.70;;
9214;SDS011;4642;51.364;6.788;2023-05-07T10:50:38;2.30;;;0.77;;
9214;SDS011;4642;51.364;6.788;2023-05-07T10:55:42;1.53;;;1.00;;
9214;SDS011;4642;51.364;6.788;2023-05-07T10:58:28;1.53;;;1.07;;
9214;SDS011;4642;51.364;6.788;2023-05-07T11:00:55;3.63;;;1.00;;
9214;SDS011;4642;51.364;6.788;2023-05-07T11:03:22;4.30;;;1.10;;
9214;SDS011;4642;51.364;6.788;2023-05-07T11:05:48;2.30;;;1.07;;
9214;SDS011;4642;51.364;6.788;2023-05-07T11:11:18;1.70;;;1.10;;
9214;SDS011;4642;51.364;6.788;2023-05-07T11:13:47;1.83;;;1.13;;
9214;SDS011;4642;51.364;6.788;2023-05-07T11:16:17;1.00;;;0.90;;
9214;SDS011;4642;51.364;6.788;2023-05-07T11:18:52;1.93;;;1.07;;
9214;SDS011;4642;51.364;6.788;2023-05-07T11:21:37;2.83;;;0.90;;
9214;SDS011;4642;51.364;6.788;2023-05-07T11:24:05;2.77;;;1.37;;
9214;SDS011;4642;51.364;6.788;2023-05-07T11:26:41;0.90;;;0.80;;
9214;SDS011;4642;51.364;6.788;2023-05-07T11:29:13;1.50;;;0.87;;
9214;SDS011;4642;51.364;6.788;2023-05-07T11:31:42;0.93;;;0.80;;
9214;SDS011;4642;51.364;6.788;2023-05-07T11:34:08;1.27;;;1.03;;
9214;SDS011;4642;51.364;6.788;2023-05-07T11:36:33;1.70;;;0.93;;
9214;SDS011;4642;51.364;6.788;2023-05-07T11:38:59;1.40;;;1.17;;
9214;SDS011;4642;51.364;6.788;2023-05-07T11:41:35;1.80;;;0.87;;
9214;SDS011;4642;51.364;6.788;2023-05-07T11:44:02;2.20;;;1.17;;
9214;SDS011;4642;51.364;6.788;2023-05-07T11:46:28;2.03;;;1.27;;
9214;SDS011;4642;51.364;6.788;2023-05-07T11:48:54;2.30;;;1.10;;
9214;SDS011;4642;51.364;6.788;2023-05-07T11:51:21;1.30;;;1.10;;
9214;SDS011;4642;51.364;6.788;2023-05-07T11:53:51;1.53;;;0.80;;
9214;SDS011;4642;51.364;6.788;2023-05-07T11:56:17;3.00;;;1.10;;
9214;SDS011;4642;51.364;6.788;2023-05-07T11:58:44;1.33;;;1.10;;
9214;SDS011;4642;51.364;6.788;2023-05-07T12:01:12;3.57;;;1.20;;
9214;SDS011;4642;51.364;6.788;2023-05-07T12:03:42;3.03;;;1.30;;
9214;SDS011;4642;51.364;6.788;2023-05-07T12:06:09;1.70;;;1.03;;
9214;SDS011;4642;51.364;6.788;2023-05-07T12:08:36;1.97;;;1.20;;
9214;SDS011;4642;51.364;6.788;2023-05-07T12:11:03;1.80;;;1.10;;
9214;SDS011;4642;51.364;6.788;2023-05-07T12:13:31;2.37;;;1.03;;
9214;SDS011;4642;51.364;6.788;2023-05-07T12:15:57;1.03;;;0.87;;
9214;SDS011;4642;51.364;6.788;2023-05-07T12:18:22;1.37;;;1.03;;
9214;SDS011;4642;51.364;6.788;2023-05-07T12:20:49;5.23;;;1.10;;
9214;SDS011;4642;51.364;6.788;2023-05-07T12:23:15;2.40;;;1.23;;
9214;SDS011;4642;51.364;6.788;2023-05-07T12:25:42;1.80;;;1.27;;
9214;SDS011;4642;51.364;6.788;2023-05-07T12:28:20;2.90;;;1.43;;
9214;SDS011;4642;51.364;6.788;2023-05-07T12:30:47;2.60;;;1.30;;
9214;SDS011;4642;51.364;6.788;2023-05-07T12:33:17;3.23;;;1.00;;
9214;SDS011;4642;51.364;6.788;2023-05-07T12:39:12;2.30;;;1.27;;
9214;SDS011;4642;51.364;6.788;2023-05-07T12:41:57;1.90;;;1.30;;
9214;SDS011;4642;51.364;6.788;2023-05-07T12:44:24;2.43;;;1.17;;
9214;SDS011;4642;51.364;6.788;2023-05-07T12:47:02;1.73;;;1.30;;
9214;SDS011;4642;51.364;6.788;2023-05-07T12:49:28;2.53;;;1.30;;
9214;SDS011;4642;51.364;6.788;2023-05-07T12:51:54;3.60;;;1.40;;
9214;SDS011;4642;51.364;6.788;2023-05-07T12:57:04;3.37;;;1.53;;
9214;SDS011;4642;51.364;6.788;2023-05-07T12:59:35;3.07;;;1.70;;
9214;SDS011;4642;51.364;6.788;2023-05-07T13:02:01;2.93;;;1.60;;
9214;SDS011;4642;51.364;6.788;2023-05-07T13:04:27;5.10;;;1.53;;
9214;SDS011;4642;51.364;6.788;2023-05-07T13:06:53;4.23;;;1.53;;
9214;SDS011;4642;51.364;6.788;2023-05-07T13:09:18;3.30;;;1.60;;
9214;SDS011;4642;51.364;6.788;2023-05-07T13:11:44;2.83;;;1.50;;
9214;SDS011;4642;51.364;6.788;2023-05-07T13:14:09;6.10;;;1.40;;
9214;SDS011;4642;51.364;6.788;2023-05-07T13:16:35;4.60;;;1.80;;
9214;SDS011;4642;51.364;6.788;2023-05-07T13:19:01;3.20;;;2.03;;
9214;SDS011;4642;51.364;6.788;2023-05-07T13:21:26;4.77;;;1.80;;
9214;SDS011;4642;51.364;6.788;2023-05-07T13:23:52;2.50;;;1.90;;
9214;SDS011;4642;51.364;6.788;2023-05-07T13:26:18;2.60;;;2.00;;
9214;SDS011;4642;51.364;6.788;2023-05-07T13:28:43;2.83;;;1.80;;
9214;SDS011;4642;51.364;6.788;2023-05-07T13:31:09;4.63;;;1.97;;
9214;SDS011;4642;51.364;6.788;2023-05-07T13:33:34;7.90;;;1.97;;
9214;SDS011;4642;51.364;6.788;2023-05-07T13:36:00;2.60;;;2.03;;
9214;SDS011;4642;51.364;6.788;2023-05-07T13:38:28;4.37;;;2.10;;
9214;SDS011;4642;51.364;6.788;2023-05-07T13:40:54;2.60;;;2.40;;
9214;SDS011;4642;51.364;6.788;2023-05-07T13:43:20;3.53;;;2.53;;
9214;SDS011;4642;51.364;6.788;2023-05-07T13:45:45;5.03;;;2.33;;
9214;SDS011;4642;51.364;6.788;2023-05-07T13:48:11;5.07;;;2.10;;
9214;SDS011;4642;51.364;6.788;2023-05-07T13:50:36;3.40;;;1.90;;
9214;SDS011;4642;51.364;6.788;2023-05-07T13:53:02;4.33;;;2.30;;
9214;SDS011;4642;51.364;6.788;2023-05-07T13:55:28;4.87;;;2.37;;
9214;SDS011;4642;51.364;6.788;2023-05-07T13:57:55;2.87;;;2.10;;
9214;SDS011;4642;51.364;6.788;2023-05-07T14:00:22;4.43;;;2.40;;
9214;SDS011;4642;51.364;6.788;2023-05-07T14:02:48;3.80;;;2.23;;
9214;SDS011;4642;51.364;6.788;2023-05-07T14:05:14;4.33;;;2.60;;
9214;SDS011;4642;51.364;6.788;2023-05-07T14:07:39;2.90;;;2.63;;
9214;SDS011;4642;51.364;6.788;2023-05-07T14:10:05;3.40;;;2.40;;
9214;SDS011;4642;51.364;6.788;2023-05-07T14:12:31;3.17;;;2.63;;
9214;SDS011;4642;51.364;6.788;2023-05-07T14:14:57;5.57;;;2.97;;
9214;SDS011;4642;51.364;6.788;2023-05-07T14:17:23;3.87;;;3.00;;
9214;SDS011;4642;51.364;6.788;2023-05-07T14:19:51;4.80;;;2.83;;
9214;SDS011;4642;51.364;6.788;2023-05-07T14:22:18;3.30;;;3.00;;
9214;SDS011;4642;51.364;6.788;2023-05-07T14:24:48;4.50;;;3.43;;
9214;SDS011;4642;51.364;6.788;2023-05-07T14:27:14;4.30;;;3.07;;
9214;SDS011;4642;51.364;6.788;2023-05-07T14:29:40;3.20;;;2.90;;
9214;SDS011;4642;51.364;6.788;2023-05-07T14:32:06;4.17;;;3.40;;
9214;SDS011;4642;51.364;6.788;2023-05-07T14:34:31;6.87;;;3.63;;
9214;SDS011;4642;51.364;6.788;2023-05-07T14:36:58;4.87;;;3.80;;
9214;SDS011;4642;51.364;6.788;2023-05-07T14:39:24;3.47;;;2.80;;
9214;SDS011;4642;51.364;6.788;2023-05-07T14:41:50;7.43;;;4.60;;
9214;SDS011;4642;51.364;6.788;2023-05-07T14:44:16;8.23;;;3.50;;
9214;SDS011;4642;51.364;6.788;2023-05-07T14:46:42;4.93;;;3.30;;
9214;SDS011;4642;51.364;6.788;2023-05-07T14:49:07;6.10;;;3.97;;
9214;SDS011;4642;51.364;6.788;2023-05-07T14:51:41;4.47;;;4.00;;
9214;SDS011;4642;51.364;6.788;2023-05-07T14:54:07;4.03;;;3.53;;
9214;SDS011;4642;51.364;6.788;2023-05-07T14:56:32;5.00;;;3.83;;
9214;SDS011;4642;51.364;6.788;2023-05-07T14:59:00;4.07;;;3.67;;
9214;SDS011;4642;51.364;6.788;2023-05-07T15:01:25;5.47;;;3.60;;
9214;SDS011;4642;51.364;6.788;2023-05-07T15:03:51;5.87;;;4.20;;
9214;SDS011;4642;51.364;6.788;2023-05-07T15:06:16;6.73;;;3.93;;
9214;SDS011;4642;51.364;6.788;2023-05-07T15:08:42;7.07;;;4.57;;
9214;SDS011;4642;51.364;6.788;2023-05-07T15:11:07;6.77;;;4.47;;
9214;SDS011;4642;51.364;6.788;2023-05-07T15:13:33;6.03;;;4.33;;
9214;SDS011;4642;51.364;6.788;2023-05-07T15:15:59;7.20;;;4.10;;
9214;SDS011;4642;51.364;6.788;2023-05-07T15:18:24;8.03;;;4.67;;
9214;SDS011;4642;51.364;6.788;2023-05-07T15:20:50;11.97;;;4.67;;
9214;SDS011;4642;51.364;6.788;2023-05-07T15:23:16;7.67;;;4.43;;
9214;SDS011;4642;51.364;6.788;2023-05-07T15:25:42;7.27;;;4.43;;
9214;SDS011;4642;51.364;6.788;2023-05-07T15:28:07;7.60;;;4.37;;
9214;SDS011;4642;51.364;6.788;2023-05-07T15:30:33;5.20;;;3.90;;